Time;durP1;ratioP1;P1;durP2;ratioP2;P2;SDS_P1;SDS_P2;PMS_P1;PMS_P2;Temp;Humidity;BMP_temperature;BMP_pressure;BME280_temperature;BME280_humidity;BME280_pressure;Samples;Min_cycle;Max_cycle;Signal;HPM_P1;HPM_P2
2022/10/08 00:02:16;;;;;;;43.35;19.38;;;10.90;99.90;;;;;;5051469;28;20016;-65
2022/10/08 00:04:42;;;;;;;38.75;17.88;;;10.90;99.90;;;;;;5052124;28;20204;-65
2022/10/08 00:07:08;;;;;;;37.38;18.63;;;10.80;99.90;;;;;;5051319;28;20025;-64
2022/10/08 00:09:33;;;;;;;36.70;18.40;;;10.90;99.90;;;;;;5052433;28;20174;-64
2022/10/08 00:11:59;;;;;;;36.30;18.00;;;10.90;99.90;;;;;;5051634;28;20043;-66
2022/10/08 00:14:24;;;;;;;36.67;18.48;;;10.90;99.90;;;;;;5050612;28;20033;-64
2022/10/08 00:16:50;;;;;;;40.50;18.33;;;10.90;99.90;;;;;;5052188;28;20519;-64
2022/10/08 00:19:16;;;;;;;38.47;18.05;;;10.90;99.90;;;;;;5049439;28;20060;-65
2022/10/08 00:21:43;;;;;;;39.90;18.50;;;10.80;99.90;;;;;;5051898;28;20033;-66
2022/10/08 00:24:13;;;;;;;36.78;18.08;;;10.80;99.90;;;;;;5050779;28;20037;-64
2022/10/08 00:26:38;;;;;;;34.47;18.95;;;10.90;99.90;;;;;;5051578;28;20740;-64
2022/10/08 00:29:05;;;;;;;33.72;17.55;;;10.80;99.90;;;;;;5050998;28;20033;-64
2022/10/08 00:31:33;;;;;;;35.30;17.90;;;10.80;99.90;;;;;;5051407;28;20138;-65
2022/10/08 00:34:02;;;;;;;35.28;17.85;;;10.80;99.90;;;;;;5051632;28;20115;-69
2022/10/08 00:36:32;;;;;;;35.40;16.88;;;10.80;99.90;;;;;;5051389;28;20611;-65
2022/10/08 00:39:00;;;;;;;39.85;18.83;;;10.80;99.90;;;;;;5050049;28;20370;-68
2022/10/08 00:41:29;;;;;;;37.80;17.50;;;10.80;99.90;;;;;;5049835;28;20530;-66
2022/10/08 00:43:58;;;;;;;36.38;18.55;;;10.70;99.90;;;;;;5051592;28;20037;-63
2022/10/08 00:46:29;;;;;;;33.70;17.17;;;10.70;99.90;;;;;;5050898;28;20033;-63
2022/10/08 00:49:17;;;;;;;33.22;17.25;;;10.80;99.90;;;;;;5051504;28;20035;-65
2022/10/08 00:51:52;;;;;;;35.28;17.58;;;10.70;99.90;;;;;;5051329;28;20037;-64
2022/10/08 00:54:20;;;;;;;33.40;17.83;;;10.60;99.90;;;;;;5048555;28;20686;-64
2022/10/08 00:56:50;;;;;;;33.15;16.92;;;10.60;99.90;;;;;;5050362;28;20056;-64
2022/10/08 00:59:16;;;;;;;34.20;17.60;;;10.70;99.90;;;;;;5050413;28;20119;-65
2022/10/08 01:01:42;;;;;;;31.10;16.98;;;10.70;99.90;;;;;;5051164;28;20029;-64
2022/10/08 01:04:09;;;;;;;32.38;17.45;;;10.70;99.90;;;;;;5050308;28;20240;-65
2022/10/08 01:06:50;;;;;;;34.13;17.75;;;10.70;99.90;;;;;;5050983;28;20459;-62
2022/10/08 01:09:37;;;;;;;32.72;17.23;;;10.70;99.90;;;;;;5050170;28;20033;-64
2022/10/08 01:12:33;;;;;;;35.72;17.58;;;10.70;99.90;;;;;;5050394;28;20090;-68
2022/10/08 01:15:14;;;;;;;32.65;17.17;;;10.70;99.90;;;;;;5050727;28;20044;-64
2022/10/08 01:17:55;;;;;;;35.05;17.58;;;10.70;99.90;;;;;;5050224;28;20025;-64
2022/10/08 01:20:30;;;;;;;36.58;18.60;;;10.70;99.90;;;;;;5029694;28;20647;-63
2022/10/08 01:23:20;;;;;;;36.47;17.05;;;10.80;99.90;;;;;;5030829;28;20132;-64
2022/10/08 01:26:07;;;;;;;31.60;17.00;;;10.90;99.90;;;;;;5044292;28;20041;-64
2022/10/08 01:28:56;;;;;;;34.00;17.33;;;11.00;99.90;;;;;;5050637;28;20055;-65
2022/10/08 01:31:36;;;;;;;34.33;18.40;;;11.20;99.90;;;;;;5049716;28;20037;-65
2022/10/08 01:34:22;;;;;;;36.63;16.95;;;11.40;99.90;;;;;;5050403;28;20029;-66
2022/10/08 01:36:51;;;;;;;32.45;16.08;;;11.40;99.90;;;;;;5050529;28;20028;-65
2022/10/08 01:39:20;;;;;;;28.73;16.30;;;11.40;99.90;;;;;;5049660;28;20056;-64
2022/10/08 01:41:52;;;;;;;32.55;16.58;;;11.40;99.90;;;;;;5049114;28;20170;-63
2022/10/08 01:44:34;;;;;;;32.58;16.65;;;11.40;99.90;;;;;;5049622;28;20025;-64
2022/10/08 01:47:05;;;;;;;34.85;16.85;;;11.40;99.90;;;;;;5050422;28;20025;-64
2022/10/08 01:49:41;;;;;;;35.17;15.95;;;11.50;99.90;;;;;;5050215;28;20045;-65
2022/10/08 01:52:16;;;;;;;31.58;15.90;;;11.60;99.90;;;;;;5049500;28;20044;-68
2022/10/08 01:54:46;;;;;;;30.60;16.50;;;11.50;99.90;;;;;;5049979;28;20473;-64
2022/10/08 01:57:12;;;;;;;26.73;15.13;;;11.50;99.90;;;;;;5048933;28;20119;-66
2022/10/08 01:59:53;;;;;;;35.33;17.73;;;11.50;99.90;;;;;;5049953;28;20939;-65
2022/10/08 02:02:20;;;;;;;;;;;11.50;99.90;;;;;;5049733;28;20481;-66
2022/10/08 02:04:46;;;;;;;36.60;16.17;;;11.50;99.90;;;;;;5049679;28;19915;-64
2022/10/08 02:07:19;;;;;;;33.08;16.52;;;11.60;99.90;;;;;;5049105;28;20033;-64
2022/10/08 02:09:53;;;;;;;41.63;17.42;;;11.60;99.90;;;;;;5048690;28;20382;-64
2022/10/08 02:12:21;;;;;;;31.52;16.88;;;11.70;99.90;;;;;;5049175;28;20086;-65
2022/10/08 02:14:51;;;;;;;50.38;20.70;;;11.70;99.90;;;;;;5049528;28;20417;-63
2022/10/08 02:17:34;;;;;;;40.50;18.80;;;11.80;99.90;;;;;;5049027;28;20092;-63
2022/10/08 02:20:15;;;;;;;30.20;16.55;;;12.00;99.90;;;;;;5049559;28;20056;-65
2022/10/08 02:23:06;;;;;;;28.63;16.10;;;12.00;99.90;;;;;;5049682;28;20029;-65
2022/10/08 02:25:41;;;;;;;;;;;11.80;99.90;;;;;;5049701;28;20056;-65
2022/10/08 02:28:16;;;;;;;29.05;14.95;;;11.60;99.90;;;;;;5048843;28;19912;-68
2022/10/08 02:30:57;;;;;;;27.70;15.00;;;11.50;99.90;;;;;;5049588;28;20090;-66
2022/10/08 02:33:36;;;;;;;29.75;15.20;;;11.30;99.90;;;;;;5048788;28;20025;-63
2022/10/08 02:36:05;;;;;;;27.00;14.27;;;11.20;99.90;;;;;;5049295;28;20478;-66
2022/10/08 02:38:48;;;;;;;30.38;15.70;;;11.20;99.90;;;;;;5048974;28;20512;-64
2022/10/08 02:41:16;;;;;;;33.13;16.02;;;11.20;99.90;;;;;;5048708;28;20029;-65
2022/10/08 02:43:47;;;;;;;27.27;15.32;;;11.30;99.90;;;;;;5049441;28;20021;-65
2022/10/08 02:46:16;;;;;;;;;;;11.30;99.90;;;;;;5049131;28;20029;-65
2022/10/08 02:48:50;;;;;;;28.60;14.73;;;11.40;99.90;;;;;;5049230;28;19963;-64
2022/10/08 02:51:17;;;;;;;28.30;15.32;;;11.50;99.90;;;;;;5047573;28;20156;-65
2022/10/08 02:53:44;;;;;;;28.70;15.85;;;11.60;99.90;;;;;;5049334;28;20502;-63
2022/10/08 02:56:24;;;;;;;30.30;15.27;;;11.60;99.90;;;;;;5048251;28;20044;-66
2022/10/08 02:58:51;;;;;;;29.27;15.88;;;11.70;99.90;;;;;;5047940;28;20029;-63
2022/10/08 03:01:42;;;;;;;29.35;15.50;;;11.60;99.90;;;;;;5048422;28;20040;-64
2022/10/08 03:04:18;;;;;;;34.35;17.15;;;11.60;99.90;;;;;;5048993;28;20038;-69
2022/10/08 03:06:45;;;;;;;30.95;17.58;;;11.60;99.90;;;;;;5048869;28;20183;-65
2022/10/08 03:09:12;;;;;;;29.98;16.25;;;11.70;99.90;;;;;;5048343;28;20044;-68
2022/10/08 03:11:38;;;;;;;32.85;17.77;;;11.80;99.90;;;;;;5048789;28;20389;-66
2022/10/08 03:14:08;;;;;;;42.83;19.00;;;11.80;99.90;;;;;;5048711;28;20112;-65
2022/10/08 03:16:38;;;;;;;32.05;16.67;;;11.90;99.90;;;;;;5048761;28;20029;-66
2022/10/08 03:19:05;;;;;;;30.08;15.68;;;11.90;99.90;;;;;;5051317;28;20127;-66
2022/10/08 03:21:31;;;;;;;29.13;15.60;;;11.90;99.90;;;;;;5052363;28;20052;-64
2022/10/08 03:23:57;;;;;;;41.33;18.38;;;11.90;99.90;;;;;;5052747;28;20021;-65
2022/10/08 03:26:23;;;;;;;33.35;17.42;;;12.00;99.90;;;;;;5036084;28;20041;-66
2022/10/08 03:28:51;;;;;;;30.45;16.85;;;11.90;99.90;;;;;;5052796;28;20504;-64
2022/10/08 03:31:17;;;;;;;32.63;16.50;;;12.00;99.90;;;;;;5051766;28;20505;-63
2022/10/08 03:33:42;;;;;;;28.55;15.77;;;11.90;99.90;;;;;;5052805;28;20059;-64
2022/10/08 03:36:08;;;;;;;32.60;16.42;;;11.90;99.90;;;;;;5052791;28;20033;-67
2022/10/08 03:38:34;;;;;;;39.47;15.88;;;11.90;99.90;;;;;;5052225;28;20060;-65
2022/10/08 03:41:00;;;;;;;28.48;15.13;;;11.80;99.90;;;;;;5052641;28;20025;-65
2022/10/08 03:43:31;;;;;;;26.80;15.10;;;11.70;99.90;;;;;;5051592;28;20461;-63
2022/10/08 03:45:57;;;;;;;29.38;16.48;;;11.70;99.90;;;;;;5052668;28;20029;-65
2022/10/08 03:48:22;;;;;;;26.20;15.10;;;11.60;99.90;;;;;;5051397;28;20060;-63
2022/10/08 03:50:53;;;;;;;34.15;16.23;;;11.60;99.90;;;;;;5052569;28;20469;-65
2022/10/08 03:53:20;;;;;;;32.08;17.42;;;11.60;99.90;;;;;;5051761;28;20025;-64
2022/10/08 03:55:45;;;;;;;38.50;18.50;;;11.70;99.90;;;;;;5052037;28;20044;-65
2022/10/08 03:58:11;;;;;;;32.63;16.92;;;11.80;99.90;;;;;;5050747;28;20036;-69
2022/10/08 04:00:37;;;;;;;33.15;15.43;;;11.90;99.90;;;;;;5052178;28;20090;-65
2022/10/08 04:03:03;;;;;;;33.55;15.35;;;11.90;99.90;;;;;;5052144;28;20060;-66
2022/10/08 04:05:28;;;;;;;28.05;14.55;;;11.80;99.90;;;;;;5050202;28;20049;-66
2022/10/08 04:07:54;;;;;;;26.48;14.05;;;11.70;99.90;;;;;;5052158;28;20048;-63
2022/10/08 04:10:19;;;;;;;27.83;14.90;;;11.60;99.90;;;;;;5051370;28;20027;-64
2022/10/08 04:12:45;;;;;;;30.52;16.25;;;11.60;99.90;;;;;;5051608;28;20025;-64
2022/10/08 04:15:11;;;;;;;31.60;16.60;;;11.60;99.90;;;;;;5051612;28;20029;-67
2022/10/08 04:17:36;;;;;;;36.85;17.52;;;11.60;99.90;;;;;;5051796;28;20033;-66
2022/10/08 04:20:02;;;;;;;29.90;15.57;;;11.60;99.90;;;;;;5051790;28;20744;-65
2022/10/08 04:22:28;;;;;;;31.85;15.88;;;11.70;99.90;;;;;;5051244;28;20037;-65
2022/10/08 04:24:53;;;;;;;29.58;16.77;;;11.80;99.90;;;;;;5051894;28;20052;-64
2022/10/08 04:27:19;;;;;;;28.35;15.70;;;11.80;99.90;;;;;;5051027;28;20047;-66
2022/10/08 04:29:45;;;;;;;31.70;17.15;;;11.80;99.90;;;;;;5050624;28;20033;-65
2022/10/08 04:32:11;;;;;;;28.05;16.58;;;11.80;99.90;;;;;;5051837;28;20115;-65
2022/10/08 04:34:36;;;;;;;34.85;15.75;;;11.90;99.90;;;;;;5050804;28;20079;-63
2022/10/08 04:37:02;;;;;;;31.75;16.13;;;11.90;99.90;;;;;;5051626;28;20509;-64
2022/10/08 04:39:27;;;;;;;36.40;16.83;;;11.80;99.90;;;;;;5050877;28;20033;-65
2022/10/08 04:41:53;;;;;;;38.15;20.08;;;11.90;99.90;;;;;;5051894;28;20028;-63
2022/10/08 04:44:19;;;;;;;32.95;16.55;;;11.90;99.90;;;;;;5050195;28;20045;-65
2022/10/08 04:46:44;;;;;;;28.42;15.73;;;12.00;99.90;;;;;;5051762;28;20044;-65
2022/10/08 04:49:10;;;;;;;27.15;14.80;;;11.80;99.90;;;;;;5049918;28;20041;-65
2022/10/08 04:51:36;;;;;;;36.25;18.60;;;11.80;99.90;;;;;;5050658;28;20035;-65
2022/10/08 04:54:02;;;;;;;46.10;18.45;;;11.90;99.90;;;;;;5051331;28;20036;-66
2022/10/08 04:56:30;;;;;;;31.42;15.13;;;11.90;99.90;;;;;;5050551;28;20470;-64
2022/10/08 04:58:57;;;;;;;26.60;15.10;;;11.90;99.90;;;;;;5051262;28;20555;-63
2022/10/08 05:01:24;;;;;;;36.88;18.20;;;11.80;99.90;;;;;;5049043;28;20028;-64
2022/10/08 05:03:52;;;;;;;37.05;17.58;;;11.80;99.90;;;;;;5051185;28;20032;-63
2022/10/08 05:06:22;;;;;;;34.58;17.83;;;11.80;99.90;;;;;;5049898;28;20025;-65
2022/10/08 05:08:48;;;;;;;31.17;16.30;;;11.90;99.90;;;;;;5051053;28;20035;-64
2022/10/08 05:11:15;;;;;;;46.42;19.52;;;11.90;99.90;;;;;;5049179;28;20090;-68
2022/10/08 05:13:41;;;;;;;34.92;18.90;;;11.90;99.90;;;;;;5050421;28;20033;-65
2022/10/08 05:16:12;;;;;;;35.50;18.63;;;11.90;99.90;;;;;;5050825;28;20094;-64
2022/10/08 05:18:38;;;;;;;;;;;11.80;99.90;;;;;;5050340;28;20025;-65
2022/10/08 05:21:14;;;;;;;31.95;16.08;;;11.60;99.90;;;;;;5050548;28;20031;-65
2022/10/08 05:23:43;;;;;;;28.85;15.68;;;11.50;99.90;;;;;;5049332;28;20037;-65
2022/10/08 05:26:20;;;;;;;36.60;19.27;;;11.50;99.90;;;;;;5050804;28;20098;-65
2022/10/08 05:28:47;;;;;;;31.90;16.63;;;11.50;99.90;;;;;;5050380;28;20045;-65
2022/10/08 05:31:14;;;;;;;53.33;25.02;;;11.60;99.90;;;;;;5050424;28;20115;-67
2022/10/08 05:33:40;;;;;;;48.63;24.65;;;11.80;99.90;;;;;;5050208;28;20025;-65
2022/10/08 05:36:07;;;;;;;63.35;26.10;;;12.00;99.90;;;;;;5050554;28;20098;-64
2022/10/08 05:38:34;;;;;;;41.13;16.08;;;12.20;99.90;;;;;;5049722;28;20037;-64
2022/10/08 05:41:29;;;;;;;25.75;13.98;;;12.10;99.90;;;;;;5050275;28;20119;-64
2022/10/08 05:43:56;;;;;;;26.10;14.63;;;11.90;99.90;;;;;;5050536;28;20025;-65
2022/10/08 05:46:24;;;;;;;29.55;14.27;;;11.60;99.90;;;;;;5049561;28;20033;-65
2022/10/08 05:48:52;;;;;;;31.00;14.38;;;11.60;99.90;;;;;;5050202;28;20037;-65
2022/10/08 05:51:19;;;;;;;26.65;14.05;;;11.60;99.90;;;;;;5050139;28;20036;-68
2022/10/08 05:53:46;;;;;;;24.65;13.98;;;11.50;99.90;;;;;;5049951;28;20037;-65
2022/10/08 05:56:14;;;;;;;31.65;14.43;;;11.50;99.90;;;;;;5050034;28;20033;-63
2022/10/08 05:58:41;;;;;;;23.55;13.57;;;11.50;99.90;;;;;;5049048;28;20048;-63
2022/10/08 06:01:15;;;;;;;35.03;16.70;;;11.40;99.90;;;;;;5049757;28;20029;-64
2022/10/08 06:03:41;;;;;;;40.80;20.33;;;11.50;99.90;;;;;;5049298;28;20946;-64
2022/10/08 06:06:09;;;;;;;39.78;20.52;;;11.60;99.90;;;;;;5050008;28;20104;-65
2022/10/08 06:08:36;;;;;;;40.30;21.02;;;11.80;99.90;;;;;;5048750;28;20378;-64
2022/10/08 06:11:03;;;;;;;36.03;20.20;;;11.90;99.90;;;;;;5049768;28;20087;-65
2022/10/08 06:13:29;;;;;;;39.40;21.08;;;12.10;99.90;;;;;;5047424;28;20123;-65
2022/10/08 06:15:58;;;;;;;35.08;18.60;;;12.20;99.90;;;;;;5049547;28;20097;-66
2022/10/08 06:18:25;;;;;;;34.60;15.82;;;12.20;99.90;;;;;;5049051;28;20481;-65
2022/10/08 06:20:50;;;;;;;31.70;14.73;;;12.10;99.90;;;;;;5049396;28;20092;-65
2022/10/08 06:23:17;;;;;;;34.88;17.15;;;12.10;99.90;;;;;;5050004;28;20041;-66
2022/10/08 06:25:43;;;;;;;47.25;21.30;;;12.10;99.90;;;;;;5048965;28;20028;-65
2022/10/08 06:28:08;;;;;;;30.38;14.48;;;12.20;99.90;;;;;;5049652;28;20036;-65
2022/10/08 06:30:34;;;;;;;25.85;14.32;;;12.30;99.90;;;;;;5048686;28;20039;-63
2022/10/08 06:33:00;;;;;;;26.27;13.35;;;12.20;99.90;;;;;;5049539;28;20033;-64
2022/10/08 06:35:26;;;;;;;32.42;13.63;;;12.10;99.90;;;;;;5048830;28;20029;-64
2022/10/08 06:37:51;;;;;;;24.85;13.13;;;12.20;99.90;;;;;;5049012;28;20055;-65
2022/10/08 06:40:17;;;;;;;28.73;14.15;;;12.20;99.90;;;;;;5048121;28;20462;-65
2022/10/08 06:42:43;;;;;;;24.67;14.32;;;12.10;99.90;;;;;;5048961;28;20473;-65
2022/10/08 06:45:09;;;;;;;28.23;13.93;;;12.10;99.90;;;;;;5049785;28;20033;-64
2022/10/08 06:47:34;;;;;;;32.35;16.58;;;12.10;99.90;;;;;;5048500;28;20457;-65
2022/10/08 06:50:00;;;;;;;31.25;16.75;;;12.20;99.90;;;;;;5049470;28;20060;-65
2022/10/08 06:52:26;;;;;;;34.38;17.77;;;12.30;99.90;;;;;;5048401;28;20462;-65
2022/10/08 06:54:52;;;;;;;35.67;17.70;;;12.30;99.90;;;;;;5049002;28;20032;-64
2022/10/08 06:57:18;;;;;;;36.63;19.67;;;12.40;99.90;;;;;;5049455;28;20617;-65
2022/10/08 06:59:44;;;;;;;40.50;19.77;;;12.50;99.90;;;;;;5046881;28;20119;-65
2022/10/08 07:02:10;;;;;;;39.58;20.17;;;12.70;99.90;;;;;;5048922;28;20083;-65
2022/10/08 07:04:36;;;;;;;47.25;21.02;;;12.70;99.90;;;;;;5048326;28;20044;-63
2022/10/08 07:07:02;;;;;;;47.55;21.17;;;12.80;99.90;;;;;;5049189;28;20033;-65
2022/10/08 07:09:27;;;;;;;48.38;20.58;;;12.90;99.90;;;;;;5048351;28;20033;-63
2022/10/08 07:11:53;;;;;;;44.25;19.65;;;13.10;99.90;;;;;;5049160;28;20477;-65
2022/10/08 07:14:18;;;;;;;44.65;21.30;;;13.20;99.90;;;;;;5048996;28;20100;-66
2022/10/08 07:16:44;;;;;;;42.45;20.75;;;13.20;99.90;;;;;;5048411;28;20021;-65
2022/10/08 07:19:10;;;;;;;42.50;22.05;;;13.20;99.90;;;;;;5048995;28;20032;-63
2022/10/08 07:21:36;;;;;;;41.47;20.90;;;13.30;99.90;;;;;;5047871;28;20057;-63
2022/10/08 07:24:01;;;;;;;54.60;21.73;;;13.40;99.90;;;;;;5049145;28;20033;-65
2022/10/08 07:26:31;;;;;;;43.50;20.52;;;13.50;99.90;;;;;;5047071;28;20021;-65
2022/10/08 07:29:11;;;;;;;44.30;21.13;;;13.60;99.90;;;;;;5048912;28;20060;-63
2022/10/08 07:31:37;;;;;;;43.53;21.25;;;13.70;99.90;;;;;;5046461;28;20040;-64
2022/10/08 07:34:06;;;;;;;49.28;20.95;;;13.80;99.90;;;;;;5049024;28;20041;-66
2022/10/08 07:36:32;;;;;;;34.95;19.65;;;14.00;99.90;;;;;;5046990;28;20039;-63
2022/10/08 07:39:00;;;;;;;40.58;19.45;;;14.10;99.90;;;;;;5048791;28;20107;-63
2022/10/08 07:41:27;;;;;;;40.80;19.40;;;14.10;99.90;;;;;;5048069;28;20037;-69
2022/10/08 07:43:58;;;;;;;40.88;19.38;;;14.10;99.90;;;;;;5048546;28;20375;-64
2022/10/08 07:46:25;;;;;;;38.13;19.30;;;14.20;99.90;;;;;;5048904;28;20029;-68
2022/10/08 07:48:53;;;;;;;36.97;18.77;;;14.40;99.90;;;;;;5048238;28;20029;-63
2022/10/08 07:51:19;;;;;;;45.55;20.42;;;14.40;99.90;;;;;;5048708;28;20101;-65
2022/10/08 07:53:46;;;;;;;36.80;18.02;;;14.50;99.90;;;;;;5047948;28;20120;-65
2022/10/08 07:56:13;;;;;;;42.25;18.50;;;14.40;99.90;;;;;;5048802;28;20369;-65
2022/10/08 07:58:39;;;;;;;36.92;17.25;;;14.30;99.90;;;;;;5047678;28;20110;-65
2022/10/08 08:01:09;;;;;;;38.13;18.50;;;14.20;99.90;;;;;;5048045;28;20195;-63
2022/10/08 08:03:35;;;;;;;37.97;18.10;;;14.10;99.90;;;;;;5046541;28;20028;-62
2022/10/08 08:06:09;;;;;;;32.72;16.58;;;14.20;99.90;;;;;;5052052;28;20029;-65
2022/10/08 08:08:36;;;;;;;38.10;18.10;;;14.10;99.90;;;;;;5051496;28;20029;-65
2022/10/08 08:11:04;;;;;;;44.28;17.38;;;14.20;99.90;;;;;;5052106;28;20036;-66
2022/10/08 08:13:31;;;;;;;35.42;14.43;;;14.30;99.90;;;;;;5051791;28;20031;-63
2022/10/08 08:15:59;;;;;;;34.15;15.48;;;14.30;99.90;;;;;;5052178;28;20025;-65
2022/10/08 08:18:28;;;;;;;31.13;13.63;;;14.40;99.90;;;;;;5051693;28;20432;-64
2022/10/08 08:21:01;;;;;;;26.15;13.63;;;14.50;99.90;;;;;;5051382;28;20485;-64
2022/10/08 08:23:34;;;;;;;31.63;13.32;;;14.60;99.90;;;;;;5051744;28;20036;-68
2022/10/08 08:26:01;;;;;;;26.42;13.05;;;14.80;99.90;;;;;;5051984;28;20028;-64
2022/10/08 08:28:28;;;;;;;27.13;11.00;;;14.90;99.90;;;;;;5051461;28;20028;-66
2022/10/08 08:30:56;;;;;;;20.45;11.30;;;14.90;99.90;;;;;;5051623;28;20774;-65
2022/10/08 08:33:22;;;;;;;25.38;11.20;;;15.00;99.90;;;;;;5051719;28;20035;-66
2022/10/08 08:35:54;;;;;;;19.85;10.20;;;15.20;99.90;;;;;;5050979;28;20486;-64
2022/10/08 08:38:20;;;;;;;21.00;10.50;;;15.00;99.90;;;;;;5050250;28;20457;-63
2022/10/08 08:40:46;;;;;;;23.17;10.20;;;14.70;99.90;;;;;;5050471;28;20068;-64
2022/10/08 08:43:11;;;;;;;19.92;8.75;;;14.60;99.90;;;;;;5051630;28;20101;-65
2022/10/08 08:45:39;;;;;;;27.00;8.85;;;14.60;99.90;;;;;;5050822;28;20061;-63
2022/10/08 08:48:10;;;;;;;21.95;7.50;;;14.70;99.90;;;;;;5051155;28;20470;-65
2022/10/08 08:50:38;;;;;;;26.63;7.57;;;14.90;99.90;;;;;;5050782;28;20045;-64
2022/10/08 08:53:07;;;;;;;16.92;7.82;;;14.90;99.90;;;;;;5051167;28;20448;-64
2022/10/08 08:55:39;;;;;;;24.90;8.60;;;14.90;99.90;;;;;;5050593;28;20025;-65
2022/10/08 08:58:38;;;;;;;19.27;6.00;;;14.90;99.90;;;;;;5050934;28;20024;-65
2022/10/08 09:01:19;;;;;;;18.55;7.07;;;14.80;99.90;;;;;;5051293;28;20041;-64
2022/10/08 09:04:08;;;;;;;19.95;6.75;;;15.00;99.90;;;;;;5050331;28;20385;-64
2022/10/08 09:06:37;;;;;;;15.82;6.50;;;15.30;99.90;;;;;;5048890;28;20091;-63
2022/10/08 09:09:29;;;;;;;13.32;5.35;;;15.50;99.90;;;;;;5050494;28;20425;-63
2022/10/08 09:11:56;;;;;;;9.18;4.00;;;15.50;99.90;;;;;;5050337;28;20033;-64
2022/10/08 09:14:39;;;;;;;13.80;4.60;;;15.60;99.90;;;;;;5050868;28;20033;-63
2022/10/08 09:17:19;;;;;;;15.30;3.97;;;15.50;99.90;;;;;;5050385;28;20060;-65
2022/10/08 09:19:46;;;;;;;17.15;4.55;;;15.40;99.90;;;;;;5049892;28;20053;-64
2022/10/08 09:22:24;;;;;;;15.77;4.22;;;15.30;99.90;;;;;;5050921;28;20032;-64
2022/10/08 09:24:55;;;;;;;9.50;3.80;;;15.30;99.90;;;;;;5049662;28;20481;-64
2022/10/08 09:27:21;;;;;;;15.82;4.28;;;15.20;99.90;;;;;;5050633;28;20035;-66
2022/10/08 09:29:47;;;;;;;12.35;3.80;;;15.20;99.90;;;;;;5049416;28;20113;-65
2022/10/08 09:32:19;;;;;;;22.45;4.70;;;15.10;99.90;;;;;;5050070;28;20052;-65
2022/10/08 09:34:47;;;;;;;9.20;3.72;;;15.20;99.90;;;;;;5049880;28;20079;-65
2022/10/08 09:37:24;;;;;;;16.08;4.50;;;15.30;99.90;;;;;;5050499;28;20452;-64
2022/10/08 09:40:26;;;;;;;21.48;4.25;;;15.20;99.90;;;;;;5049512;28;20929;-66
2022/10/08 09:43:10;;;;;;;16.00;4.43;;;15.30;99.90;;;;;;5026877;28;20700;-66
2022/10/08 09:45:41;;;;;;;11.05;3.92;;;15.50;99.90;;;;;;5047866;28;20190;-65
2022/10/08 09:48:11;;;;;;;29.83;4.97;;;15.70;99.90;;;;;;5050331;28;20029;-65
2022/10/08 09:50:37;;;;;;;13.50;4.50;;;15.80;99.90;;;;;;5049616;28;20527;-65
2022/10/08 09:53:05;;;;;;;12.93;4.57;;;15.80;99.90;;;;;;5048929;28;20115;-65
2022/10/08 09:55:35;;;;;;;13.07;4.47;;;15.70;99.90;;;;;;5049863;28;20039;-64
2022/10/08 09:58:04;;;;;;;11.07;4.55;;;15.70;99.90;;;;;;5050221;28;20028;-64
2022/10/08 10:00:38;;;;;;;12.70;3.97;;;15.80;99.90;;;;;;5050146;28;20037;-65
2022/10/08 10:03:06;;;;;;;15.40;4.65;;;16.20;99.90;;;;;;5050115;28;20050;-65
2022/10/08 10:05:34;;;;;;;13.80;4.20;;;16.40;99.90;;;;;;5049789;28;20037;-68
2022/10/08 10:08:00;;;;;;;10.73;4.07;;;16.60;99.90;;;;;;5049784;28;20036;-63
2022/10/08 10:10:43;;;;;;;12.75;3.42;;;16.70;99.90;;;;;;5050012;28;20495;-64
2022/10/08 10:13:33;;;;;;;13.43;4.30;;;16.70;99.90;;;;;;5049959;28;20033;-65
2022/10/08 10:16:03;;;;;;;13.60;3.65;;;17.00;99.90;;;;;;5049563;28;20056;-66
2022/10/08 10:18:37;;;;;;;;;;;16.90;99.90;;;;;;5050301;28;20064;-66
2022/10/08 10:21:06;;;;;;;16.20;4.07;;;16.40;99.90;;;;;;5049457;28;19916;-63
2022/10/08 10:23:32;;;;;;;12.27;4.18;;;16.20;99.90;;;;;;5049733;28;20029;-64
2022/10/08 10:26:15;;;;;;;11.50;3.10;;;16.30;99.90;;;;;;5048821;28;20045;-63
2022/10/08 10:28:47;;;;;;;17.50;4.07;;;16.30;99.90;;;;;;5048083;28;20496;-64
2022/10/08 10:31:26;;;;;;;12.32;3.67;;;16.30;99.90;;;;;;5049789;28;20025;-63
2022/10/08 10:34:16;;;;;;;13.48;4.28;;;16.50;99.90;;;;;;5048742;28;20029;-65
2022/10/08 10:36:59;;;;;;;11.88;4.00;;;16.60;99.90;;;;;;5048810;28;20124;-65
2022/10/08 10:39:48;;;;;;;10.40;3.88;;;16.60;99.90;;;;;;5048937;28;20040;-64
2022/10/08 10:42:19;;;;;;;11.40;4.10;;;16.50;99.90;;;;;;5049377;28;20481;-64
2022/10/08 10:44:57;;;;;;;16.15;4.28;;;16.20;99.90;;;;;;5047268;28;20029;-64
2022/10/08 10:47:26;;;;;;;11.25;4.00;;;16.10;99.90;;;;;;5049595;28;20083;-67
2022/10/08 10:49:52;;;;;;;11.38;3.60;;;15.90;99.90;;;;;;5048565;28;20041;-66
2022/10/08 10:53:13;;;;;;;16.58;3.38;;;15.80;99.90;;;;;;5049369;28;20082;-65
2022/10/08 10:56:09;;;;;;;12.30;3.30;;;15.90;99.90;;;;;;5036685;28;20094;-67
2022/10/08 10:58:43;;;;;;;12.40;3.40;;;16.10;99.90;;;;;;5049258;28;20072;-69
2022/10/08 11:01:37;;;;;;;14.27;3.50;;;16.60;99.90;;;;;;5049676;28;20043;-65
2022/10/08 11:04:13;;;;;;;9.70;2.80;;;16.90;99.90;;;;;;5048348;28;20037;-63
2022/10/08 11:06:49;;;;;;;8.30;2.58;;;16.90;99.90;;;;;;5047049;28;20120;-68
2022/10/08 11:09:52;;;;;;;10.65;2.33;;;17.10;99.90;;;;;;5049227;28;20060;-66
2022/10/08 11:12:33;;;;;;;8.25;2.72;;;17.10;99.90;;;;;;5047882;28;20037;-65
2022/10/08 11:15:11;;;;;;;;;;;16.80;99.90;;;;;;5048878;28;20154;-64
2022/10/08 11:18:01;;;;;;;7.85;2.30;;;16.50;99.90;;;;;;5048982;28;19912;-67
2022/10/08 11:20:38;;;;;;;9.93;2.15;;;16.30;99.90;;;;;;5048479;28;20493;-64
2022/10/08 11:23:31;;;;;;;10.40;2.53;;;16.40;99.90;;;;;;5048662;28;20044;-64
2022/10/08 11:26:04;;;;;;;16.42;3.10;;;16.50;99.90;;;;;;5048373;28;20060;-64
2022/10/08 11:28:59;;;;;;;12.55;2.55;;;16.60;99.90;;;;;;5049125;28;20025;-63
2022/10/08 11:31:37;;;;;;;17.35;2.65;;;16.50;99.90;;;;;;5048962;28;20496;-66
2022/10/08 11:34:04;;;;;;;15.05;3.40;;;16.20;99.90;;;;;;5048559;28;20035;-64
2022/10/08 11:36:38;;;;;;;13.43;2.70;;;16.20;99.90;;;;;;5048532;28;20025;-63
2022/10/08 11:39:19;;;;;;;12.20;2.47;;;16.60;99.90;;;;;;5049079;28;20033;-65
2022/10/08 11:42:22;;;;;;;12.52;2.88;;;17.10;99.90;;;;;;5052074;28;20070;-66
2022/10/08 11:44:48;;;;;;;9.40;2.40;;;17.40;99.90;;;;;;5051957;28;20033;-64
2022/10/08 11:47:53;;;;;;;13.45;2.33;;;17.50;99.90;;;;;;5051406;28;20120;-66
2022/10/08 11:50:36;;;;;;;9.38;2.35;;;17.60;99.90;;;;;;5052259;28;20052;-64
2022/10/08 11:53:13;;;;;;;12.40;2.47;;;17.90;99.90;;;;;;5051517;28;20039;-64
2022/10/08 11:55:48;;;;;;;16.13;2.90;;;18.20;99.90;;;;;;5052550;28;20355;-70
2022/10/08 11:58:34;;;;;;;9.45;2.47;;;18.40;99.90;;;;;;5052454;28;20466;-64
2022/10/08 12:01:01;;;;;;;9.60;2.50;;;18.50;99.90;;;;;;5051647;28;20489;-66
2022/10/08 12:03:33;;;;;;;11.40;2.55;;;18.50;99.90;;;;;;5052342;28;20453;-64
2022/10/08 12:06:12;;;;;;;17.23;2.35;;;18.70;99.90;;;;;;5051395;28;20029;-64
2022/10/08 12:08:53;;;;;;;8.43;2.13;;;18.70;99.90;;;;;;5052356;28;20056;-65
2022/10/08 12:11:31;;;;;;;18.20;2.38;;;18.70;99.90;;;;;;5052305;28;20074;-64
2022/10/08 12:17:03;;;;;;;10.13;2.08;;;19.00;99.90;;;;;;5052107;28;20039;-65
2022/10/08 12:19:35;;;;;;;11.60;2.08;;;19.40;99.90;;;;;;5045309;28;20068;-64
2022/10/08 12:22:16;;;;;;;10.02;2.47;;;19.60;99.90;;;;;;5051346;28;20099;-64
2022/10/08 12:24:48;;;;;;;14.07;2.40;;;19.50;99.90;;;;;;5051277;28;20703;-69
2022/10/08 12:27:16;;;;;;;11.30;3.00;;;18.90;99.90;;;;;;5051606;28;20035;-63
2022/10/08 12:30:03;;;;;;;10.75;2.67;;;18.70;99.90;;;;;;5051420;28;20037;-70
2022/10/08 12:32:40;;;;;;;11.75;2.08;;;18.90;99.90;;;;;;5051917;28;20107;-65
2022/10/08 12:35:23;;;;;;;12.07;2.20;;;18.90;99.90;;;;;;5051354;28;20035;-65
2022/10/08 12:38:06;;;;;;;7.70;1.90;;;19.40;99.90;;;;;;5050848;28;20096;-66
2022/10/08 12:40:34;;;;;;;10.13;2.30;;;19.90;99.90;;;;;;5051682;28;20029;-65
2022/10/08 12:43:23;;;;;;;11.90;2.42;;;19.30;99.80;;;;;;5050736;28;20259;-63
2022/10/08 12:46:16;;;;;;;7.68;1.80;;;19.10;99.90;;;;;;5050564;28;20043;-64
2022/10/08 12:49:19;;;;;;;8.13;1.77;;;18.90;99.90;;;;;;5051015;28;20033;-67
2022/10/08 12:51:50;;;;;;;8.90;2.00;;;18.70;99.90;;;;;;5049452;28;20095;-67
2022/10/08 12:54:23;;;;;;;5.95;1.80;;;18.90;99.90;;;;;;5051422;28;20486;-65
2022/10/08 12:56:50;;;;;;;10.68;2.38;;;18.70;99.90;;;;;;5050571;28;20074;-64
2022/10/08 12:59:18;;;;;;;8.52;2.00;;;18.60;99.90;;;;;;5051037;28;20124;-65
2022/10/08 13:01:46;;;;;;;8.13;2.05;;;18.70;99.90;;;;;;5050092;28;20476;-67